Latest Weather Observations for Dalby

IDQ60801

Issued at 7:05 am EST Saturday 25 October 2014 (issued every 30 minutes, with the page automatically refreshed every 10 minutes)

About weather observations | Map of weather stations | Latest weather observations for QLD | Other Formats
Station Details ID: 041522 Name: DALBY AIRPORT Lat: -27.16 Lon: 151.26 Height: 343.9 m
Data from the previous 72 hours. | See also: Recent months at Dalby
Date/Time
EST
Temp
°C
App
Temp
°C
Dew
Point
Rel
Hum
%
Delta-T
°C
Wind Press
QNH
hPa
Press
MSL
hPa
Rain
since 9 am
mm
Dir
 
Spd
km/h
Gust
km/h
Spd
kts
Gust
kts
25/07:00am 19.1 14.7 12.8 67 3.6 N 28 33 15 18 1021.3 1020.0 0.0
25/06:30am 17.8 14.1 12.7 72 2.9 N 24 28 13 15 1021.2 1019.9 0.0
25/06:00am 16.5 13.0 12.1 75 2.4 N 22 28 12 15 1021.1 1019.8 0.0
25/05:30am 16.2 12.3 12.0 76 2.3 NNW 24 28 13 15 1020.6 1019.4 0.0
25/05:00am 16.0 12.8 11.8 76 2.3 NNW 20 26 11 14 1020.2 1019.0 0.0
25/04:30am 16.4 12.5 12.0 75 2.4 NNW 24 30 13 16 1019.6 1018.3 0.0
25/04:00am 16.6 13.3 11.7 73 2.7 NW 20 26 11 14 1019.2 1017.9 0.0
25/03:30am 16.8 13.7 11.5 71 2.9 NW 19 24 10 13 1018.7 1017.4 0.0
25/03:00am 16.8 14.9 11.7 72 2.8 NW 13 15 7 8 1018.5 1017.2 0.0
25/02:30am 16.9 15.6 11.2 69 3.1 NW 9 11 5 6 1018.5 1017.2 0.0
25/02:00am 17.5 16.2 11.3 67 3.4 NW 9 11 5 6 1018.4 1017.1 0.0
25/01:30am 18.5 16.5 11.6 64 3.8 NNW 13 17 7 9 1018.6 1017.3 0.0
25/01:00am 18.8 16.5 11.9 64 3.9 NNW 15 15 8 8 1018.7 1017.4 0.0
25/12:30am 19.0 17.8 11.6 62 4.1 N 9 11 5 6 1019.0 1017.7 0.0
25/12:00am 18.6 17.5 10.7 60 4.3 NNE 7 9 4 5 1019.4 1018.1 0.0
 
Date/Time
EST
Temp
°C
App
Temp
°C
Dew
Point
Rel
Hum
%
Delta-T
°C
Wind Press
QNH
hPa
Press
MSL
hPa
Rain
since 9 am
mm
Dir
 
Spd
km/h
Gust
km/h
Spd
kts
Gust
kts
24/11:30pm 20.2 18.7 11.9 59 4.7 NNE 11 17 6 9 1019.7 1018.4 0.0
24/11:00pm 21.1 17.6 12.3 57 5.0 NNE 22 32 12 17 1019.7 1018.4 0.0
24/10:30pm 21.4 17.8 12.0 55 5.4 N 22 32 12 17 1020.3 1019.1 0.0
24/10:00pm 22.2 17.2 12.2 53 5.7 N 30 37 16 20 1020.0 1018.7 0.0
24/09:30pm 23.0 18.7 12.0 50 6.3 NNE 26 32 14 17 1020.2 1019.0 0.0
24/09:00pm 24.1 20.0 11.4 45 7.2 NNE 24 33 13 18 1020.3 1019.1 0.0
24/08:30pm 24.9 21.6 9.6 38 8.5 NNE 17 22 9 12 1020.1 1018.8 0.0
24/08:00pm 25.3 21.3 8.3 34 9.2 NE 19 24 10 13 1019.7 1018.4 0.0
24/07:30pm 25.4 21.5 7.1 31 9.8 NE 17 20 9 11 1019.1 1017.8 0.0
24/07:00pm 26.9 22.1 7.4 29 10.5 NE 22 26 12 14 1018.5 1017.2 0.0
24/06:30pm 27.3 23.4 7.2 28 10.9 ENE 17 22 9 12 1018.0 1016.7 0.0
24/06:00pm 28.8 25.6 5.0 22 12.5 ENE 11 15 6 8 1017.7 1016.5 0.0
24/05:30pm 30.6 28.2 5.1 20 13.5 ESE 7 11 4 6 1017.4 1016.1 0.0
24/05:00pm 31.4 27.6 5.8 20 13.8 ESE 15 20 8 11 1017.1 1015.8 0.0
24/04:30pm 31.2 28.1 5.6 20 13.8 ESE 11 17 6 9 1017.0 1015.7 0.0
24/04:00pm 31.3 29.3 6.4 21 13.5 NW 6 15 3 8 1017.1 1015.8 0.0
24/03:30pm 31.1 27.4 6.2 21 13.5 S 15 26 8 14 1017.3 1016.0 0.0
24/03:00pm 31.6 27.2 6.6 21 13.7 ESE 19 26 10 14 1017.4 1016.1 0.0
24/02:30pm 31.2 26.8 7.6 23 13.1 E 20 26 11 14 1017.9 1016.6 0.0
24/02:00pm 31.0 28.3 7.5 23 13.0 SW 11 22 6 12 1018.3 1017.0 0.0
24/01:30pm 30.8 29.1 8.5 25 12.5 SSE 7 17 4 9 1018.7 1017.4 0.0
24/01:00pm 29.4 27.6 7.9 26 11.9 ENE 7 13 4 7 1019.3 1018.0 0.0
24/12:30pm 28.8 27.0 7.9 27 11.5 NNW 7 13 4 7 1019.8 1018.5 0.0
24/12:00pm 28.2 26.4 9.5 31 10.5 NE 9 15 5 8 1020.4 1019.2 0.0
24/11:30am 27.4 25.6 9.3 32 10.1 NW 9 15 5 8 1021.0 1019.7 0.0
24/11:00am 26.8 25.5 10.1 35 9.4 WNW 7 15 4 8 1021.3 1020.0 0.0
24/10:30am 25.5 23.9 10.1 38 8.7 NW 9 17 5 9 1021.9 1020.6 0.0
24/10:00am 24.5 22.8 11.1 43 7.6 N 11 22 6 12 1022.4 1021.1 0.0
24/09:30am 23.7 21.6 11.1 45 7.1 N 13 17 7 9 1022.5 1021.2 0.0
24/09:00am 22.1 20.4 11.2 50 6.1 N 11 20 6 11 1022.9 1021.7 0.0
24/08:30am 21.5 18.7 11.5 53 5.7 N 17 26 9 14 1023.1 1021.9 0.0
24/08:00am 20.6 18.0 12.1 58 4.8 N 17 24 9 13 1023.1 1021.9 0.0
24/07:30am 19.3 16.2 12.1 63 4.1 NNW 20 28 11 15 1022.8 1021.6 0.0
24/07:00am 18.9 16.2 12.9 68 3.4 N 19 26 10 14 1022.7 1021.5 0.0
24/06:30am 17.3 14.3 11.8 70 3.1 NNW 19 24 10 13 1022.3 1021.0 0.0
24/06:00am 15.7 14.4 11.1 74 2.5 NNW 9 15 5 8 1022.0 1020.7 0.0
24/05:30am 13.9 12.4 9.3 74 2.4 NW 7 9 4 5 1021.6 1020.3 0.0
24/05:00am 13.5 12.1 8.8 73 2.4 N 6 11 3 6 1020.7 1019.5 0.0
24/04:30am 14.6 12.1 9.8 73 2.5 NNW 13 15 7 8 1020.5 1019.3 0.0
24/04:00am 14.2 11.8 8.6 69 2.9 NNW 11 13 6 7 1020.2 1019.0 0.0
24/03:30am 15.4 13.1 8.9 65 3.4 N 11 13 6 7 1020.1 1018.8 0.0
24/03:00am 16.0 14.0 8.7 62 3.8 N 9 15 5 8 1020.1 1018.8 0.0
24/02:30am 17.1 14.4 9.0 59 4.3 N 13 15 7 8 1019.9 1018.6 0.0
24/02:00am 17.0 14.4 9.2 60 4.1 NNE 13 17 7 9 1019.9 1018.6 0.0
24/01:30am 18.0 13.8 9.6 58 4.5 N 22 30 12 16 1019.8 1018.5 0.0
24/01:00am 19.0 15.0 10.3 57 4.7 NNW 22 28 12 15 1019.7 1018.4 0.0
24/12:30am 17.8 14.8 9.4 58 4.5 N 15 17 8 9 1020.4 1019.2 0.0
24/12:00am 18.6 16.7 9.1 54 5.0 NE 9 11 5 6 1020.8 1019.6 0.0
 
Date/Time
EST
Temp
°C
App
Temp
°C
Dew
Point
Rel
Hum
%
Delta-T
°C
Wind Press
QNH
hPa
Press
MSL
hPa
Rain
since 9 am
mm
Dir
 
Spd
km/h
Gust
km/h
Spd
kts
Gust
kts
23/11:30pm 18.9 17.2 9.7 55 5.0 E 9 13 5 7 1021.3 1020.0 0.0
23/11:00pm 20.9 17.5 10.7 52 5.6 ESE 19 24 10 13 1021.3 1020.0 0.0
23/10:30pm 22.0 17.1 9.9 46 6.7 SE 26 33 14 18 1020.7 1019.5 0.0
23/10:00pm 22.4 17.9 6.2 35 8.3 ESE 19 24 10 13 1020.3 1019.1 0.0
23/09:30pm 23.6 20.3 6.4 33 9.0 ESE 13 17 7 9 1020.5 1019.3 0.0
23/09:00pm 25.1 21.7 5.8 29 10.0 SE 13 19 7 10 1020.5 1019.3 0.0
23/08:30pm 25.4 20.8 6.6 30 9.9 E 20 24 11 13 1019.8 1018.5 0.0
23/08:00pm 24.3 20.6 7.9 35 8.8 W 17 20 9 11 1018.9 1017.6 0.0
23/07:30pm 25.9 22.3 8.4 33 9.6 WSW 17 22 9 12 1018.8 1017.5 0.0
23/07:00pm 25.5 24.3 4.6 26 10.7 CALM 0 0 0 0 1018.2 1016.9 0.0
23/06:30pm 27.2 26.2 5.5 25 11.4 CALM 0 0 0 0 1017.6 1016.4 0.0
23/06:00pm 28.5 27.5 5.4 23 12.2 CALM 0 0 0 0 1017.3 1016.0 0.0
23/05:30pm 29.4 26.7 5.5 22 12.7 NNW 9 13 5 7 1017.1 1015.8 0.0
23/05:00pm 29.4 27.1 5.5 22 12.7 N 7 13 4 7 1016.7 1015.4 0.0
23/04:30pm 29.3 26.2 5.4 22 12.7 NE 11 17 6 9 1016.5 1015.2 0.0
23/04:00pm 29.7 27.4 5.7 22 12.8 NW 7 9 4 5 1016.6 1015.3 0.0
23/03:30pm 29.1 26.5 5.9 23 12.4 E 9 17 5 9 1016.6 1015.3 0.0
23/03:00pm 29.2 26.0 5.3 22 12.6 S 11 17 6 9 1016.9 1015.6 0.0
23/02:30pm 29.5 26.2 6.2 23 12.5 E 13 20 7 11 1017.1 1015.8 0.0
23/02:00pm 28.3 24.6 6.4 25 11.7 E 15 28 8 15 1017.6 1016.4 0.0
23/01:30pm 28.6 26.0 7.8 27 11.4 E 11 19 6 10 1018.2 1016.9 0.0
23/01:00pm 28.7 27.0 8.4 28 11.3 SE 7 13 4 7 1018.8 1017.5 0.0
23/12:30pm 27.5 24.8 8.9 31 10.4 WSW 13 20 7 11 1019.4 1018.1 0.0
23/12:00pm 26.1 23.2 8.1 32 9.8 WSW 13 20 7 11 1020.1 1018.8 0.0
23/11:30am 26.5 24.8 8.5 32 9.9 WNW 7 15 4 8 1020.6 1019.4 0.0
23/11:00am 25.2 22.1 8.7 35 9.0 WSW 15 24 8 13 1021.1 1019.8 0.0
23/10:30am 24.8 22.0 9.9 39 8.3 W 15 20 8 11 1021.6 1020.3 0.0
23/10:00am 23.0 21.4 10.1 44 7.1 ENE 9 15 5 8 1022.0 1020.7 0.0
23/09:30am 21.2 19.2 10.1 49 6.1 NNW 11 17 6 9 1022.4 1021.1 0.0
23/09:00am 19.9 17.5 10.0 53 5.4 WNW 13 19 7 10 1023.1 1021.9 0.0
23/08:30am 19.1 18.6 10.6 58 4.7 NW 4 9 2 5 1023.1 1021.9 0.0
23/08:00am 17.7 16.1 10.1 61 4.1 WNW 9 17 5 9 1023.1 1021.9 0.0
23/07:30am 16.7 14.4 10.3 66 3.4 WSW 13 17 7 9 1023.6 1022.4 0.0
23/07:00am 15.4 13.1 10.4 72 2.7 WSW 13 17 7 9 1023.1 1021.9 0.0
23/06:30am 13.8 11.7 9.8 77 2.1 WSW 11 13 6 7 1022.6 1021.3 0.0
23/06:00am 12.0 11.9 9.4 84 1.3 CALM 0 0 0 0 1022.3 1021.0 0.0
23/05:30am 9.8 9.2 7.4 85 1.2 CALM 0 0 0 0 1022.0 1020.7 0.0
23/05:00am 9.4 7.3 6.7 83 1.3 NE 7 9 4 5 1021.5 1020.2 0.0
23/04:30am 10.7 10.3 8.1 84 1.3 CALM 0 0 0 0 1021.2 1019.9 0.0
23/04:00am 11.5 10.0 8.5 82 1.5 SSW 6 7 3 4 1021.1 1019.8 0.0
23/03:30am 11.6 9.2 8.8 83 1.4 SW 11 11 6 6 1021.4 1020.1 0.0
23/03:00am 12.4 10.2 9.4 82 1.5 W 11 13 6 7 1021.6 1020.3 0.0
23/02:30am 12.5 12.3 9.1 80 1.7 CALM 0 0 0 0 1021.7 1020.4 0.0
23/02:00am 13.5 11.9 10.1 80 1.8 SE 9 11 5 6 1021.7 1020.4 0.0
23/01:30am 12.8 10.5 9.1 78 1.9 ESE 11 13 6 7 1021.7 1020.4 0.0
23/01:00am 13.5 11.0 9.6 77 2.0 E 13 13 7 7 1021.8 1020.5 0.0
23/12:30am 14.2 11.7 9.8 75 2.3 ESE 13 15 7 8 1022.2 1020.9 0.0
23/12:00am 14.8 11.6 10.0 73 2.5 E 17 19 9 10 1022.4 1021.1 0.0
 
Date/Time
EST
Temp
°C
App
Temp
°C
Dew
Point
Rel
Hum
%
Delta-T
°C
Wind Press
QNH
hPa
Press
MSL
hPa
Rain
since 9 am
mm
Dir
 
Spd
km/h
Gust
km/h
Spd
kts
Gust
kts
22/11:30pm 15.6 12.1 10.2 70 2.9 ENE 19 24 10 13 1022.4 1021.1 0.0
22/11:00pm 15.8 12.2 9.9 68 3.1 ENE 19 24 10 13 1022.5 1021.2 0.0
22/10:30pm 16.3 12.1 9.7 65 3.5 E 22 30 12 16 1022.2 1020.9 0.0
22/10:00pm 16.8 12.6 9.7 63 3.8 E 22 28 12 15 1022.1 1020.8 0.0
22/09:30pm 17.4 12.8 9.6 60 4.2 E 24 30 13 16 1022.1 1020.8 0.0
22/09:00pm 18.3 12.8 9.1 55 4.9 E 28 35 15 19 1022.0 1020.7 0.0
22/08:30pm 19.1 14.0 9.3 53 5.3 ENE 26 33 14 18 1021.7 1020.4 0.0
22/08:00pm 20.2 14.2 8.8 48 6.1 ENE 30 39 16 21 1021.4 1020.1 0.0
22/07:30pm 20.7 15.9 7.3 42 7.0 ENE 22 28 12 15 1021.2 1019.9 0.0
22/07:00pm 21.0 16.5 6.2 38 7.5 E 19 24 10 13 1020.8 1019.6 0.0
22/06:30pm 22.0 17.7 5.4 34 8.4 E 17 20 9 11 1020.5 1019.3 0.0
22/06:00pm 24.0 19.2 5.8 31 9.4 E 20 24 11 13 1020.4 1019.2 0.0
22/05:30pm 25.5 19.7 6.2 29 10.1 ESE 26 35 14 19 1020.3 1019.1 0.0
22/05:00pm 26.0 21.5 6.1 28 10.4 SE 19 28 10 15 1020.2 1019.0 0.0
22/04:30pm 25.8 21.7 6.4 29 10.3 ESE 17 22 9 12 1020.1 1018.8 0.0
22/04:00pm 26.1 22.4 6.2 28 10.5 E 15 19 8 10 1020.0 1018.7 0.0
22/03:30pm 27.0 22.5 6.9 28 10.8 E 20 26 11 14 1020.1 1018.8 0.0
22/03:00pm 26.5 22.5 6.5 28 10.6 ESE 17 26 9 14 1020.2 1019.0 0.0
22/02:30pm 26.4 23.2 6.9 29 10.4 SSE 13 20 7 11 1020.6 1019.4 0.0
22/02:00pm 26.0 21.4 6.6 29 10.3 E 20 32 11 17 1021.0 1019.7 0.0
22/01:30pm 26.3 21.0 6.9 29 10.4 ESE 24 32 13 17 1021.5 1020.2 0.0
22/01:00pm 25.9 22.4 7.0 30 10.1 ESE 15 28 8 15 1021.9 1020.6 0.0
22/12:30pm 25.2 23.0 7.8 33 9.4 ENE 9 20 5 11 1022.4 1021.1 0.0
22/12:00pm 24.9 20.8 8.0 34 9.1 E 19 22 10 12 1022.9 1021.7 0.0
22/11:30am 24.7 21.2 8.6 36 8.8 ESE 17 26 9 14 1023.5 1022.3 0.0
22/11:00am 24.1 19.3 8.9 38 8.3 ESE 24 28 13 15 1024.1 1022.8 0.0
22/10:30am 23.0 19.9 8.7 40 7.7 ESE 15 30 8 16 1024.5 1023.2 0.0
22/10:00am 22.0 18.9 8.9 43 7.1 ESE 15 20 8 11 1025.0 1023.7 0.0
22/09:30am 21.9 17.6 9.4 45 6.8 E 22 30 12 16 1025.2 1023.9 0.0
22/09:00am 21.1 16.5 9.7 48 6.2 ESE 24 33 13 18 1025.5 1024.3 0.0
22/08:30am 20.0 14.6 9.6 51 5.6 E 28 35 15 19 1025.5 1024.3 0.0
22/08:00am 19.4 14.6 10.4 56 4.9 E 26 41 14 22 1025.5 1024.3 0.0
22/07:30am 18.2 14.4 11.0 63 4.0 E 22 32 12 17 1025.4 1024.2 0.0

Other Formats:

Comma delimited format used in spreadsheet applications
http://www.bom.gov.au/fwo/IDQ60801/IDQ60801.94542.axf

JavaScript Object Notation format (JSON) in row-major order
http://www.bom.gov.au/fwo/IDQ60801/IDQ60801.94542.json